createdAt,value
2022-10-11T00:01:52.237Z,61.25
2022-10-11T00:04:25.715Z,61.16
2022-10-11T00:06:59.241Z,61.29
2022-10-11T00:09:32.915Z,61.36
2022-10-11T00:12:08.241Z,61.36
2022-10-11T00:14:41.774Z,61.51
2022-10-11T00:17:15.359Z,61.55
2022-10-11T00:19:48.827Z,61.57
2022-10-11T00:22:22.689Z,61.56
2022-10-11T00:24:56.225Z,61.66
2022-10-11T00:27:31.229Z,61.66
2022-10-11T00:30:06.986Z,61.71
2022-10-11T00:32:40.742Z,61.75
2022-10-11T00:35:13.927Z,60.97
2022-10-11T00:37:47.440Z,61.36
2022-10-11T00:40:22.409Z,61.69
2022-10-11T00:42:57.293Z,61.79
2022-10-11T00:46:01.992Z,61.46
2022-10-11T00:48:41.310Z,61.80
2022-10-11T00:51:21.686Z,61.75
2022-10-11T00:53:55.383Z,61.82
2022-10-11T00:56:34.055Z,62.09
2022-10-11T00:59:14.339Z,62.00
2022-10-11T01:01:47.917Z,62.04
2022-10-11T01:04:21.547Z,62.10
2022-10-11T01:06:56.139Z,62.07
2022-10-11T01:09:31.161Z,62.03
2022-10-11T01:12:08.809Z,62.26
2022-10-11T01:15:05.483Z,62.15
2022-10-11T01:17:47.923Z,62.15
2022-10-11T01:20:32.878Z,62.35
2022-10-11T01:23:38.478Z,62.03
2022-10-11T01:26:58.092Z,62.13
2022-10-11T01:29:46.420Z,62.25
2022-10-11T01:32:28.564Z,62.46
2022-10-11T01:35:07.991Z,62.33
2022-10-11T01:37:45.495Z,62.59
2022-10-11T01:40:23.793Z,62.77
2022-10-11T01:42:58.816Z,62.76
2022-10-11T01:45:34.127Z,62.76
2022-10-11T01:48:11.469Z,62.86
2022-10-11T01:50:46.783Z,62.99
2022-10-11T01:53:51.754Z,62.75
2022-10-11T01:59:42.849Z,63.03
2022-10-11T02:02:31.677Z,62.99
2022-10-11T02:05:10.891Z,63.24
2022-10-11T02:07:50.852Z,63.14
2022-10-11T02:10:33.508Z,63.34
2022-10-11T02:13:10.535Z,63.39
2022-10-11T02:15:49.894Z,63.50
2022-10-11T02:18:27.976Z,63.46
2022-10-11T02:21:03.602Z,63.64
2022-10-11T02:23:42.080Z,63.72
2022-10-11T02:26:16.541Z,63.72
2022-10-11T02:28:54.530Z,63.75
2022-10-11T02:31:30.827Z,63.79
2022-10-11T02:34:12.604Z,63.69
2022-10-11T02:36:56.641Z,63.70
2022-10-11T02:39:37.010Z,63.56
2022-10-11T02:42:16.192Z,63.79
2022-10-11T02:45:00.927Z,63.77
2022-10-11T02:47:36.492Z,63.98
2022-10-11T02:50:11.794Z,64.04
2022-10-11T02:52:45.433Z,63.95
2022-10-11T02:55:19.241Z,63.99
2022-10-11T02:57:52.846Z,64.20
2022-10-11T03:00:26.630Z,64.17
2022-10-11T03:03:01.250Z,63.16
2022-10-11T03:05:40.723Z,63.70
2022-10-11T03:08:16.471Z,64.09
2022-10-11T03:10:50.115Z,64.31
2022-10-11T03:13:23.703Z,64.42
2022-10-11T03:16:03.335Z,64.58
2022-10-11T03:18:38.715Z,64.72
2022-10-11T03:21:12.522Z,64.84
2022-10-11T03:23:45.706Z,64.00
2022-10-11T03:26:19.393Z,64.57
2022-10-11T03:28:53.078Z,64.92
2022-10-11T03:31:26.876Z,65.10
2022-10-11T03:34:01.563Z,64.27
2022-10-11T03:36:35.148Z,65.06
2022-10-11T03:39:09.066Z,65.53
2022-10-11T03:41:42.603Z,65.90
2022-10-11T03:44:16.231Z,66.09
2022-10-11T03:46:49.771Z,66.24
2022-10-11T03:49:24.916Z,66.45
2022-10-11T03:51:58.472Z,66.67
2022-10-11T03:54:32.021Z,66.70
2022-10-11T03:57:05.694Z,66.87
2022-10-11T03:59:39.366Z,66.85
2022-10-11T04:02:12.975Z,66.90
2022-10-11T04:04:48.030Z,67.25
2022-10-11T04:07:21.811Z,67.26
2022-10-11T04:09:55.259Z,66.28
2022-10-11T04:12:31.846Z,66.87
2022-10-11T04:15:06.374Z,67.14
2022-10-11T04:17:40.312Z,67.34
2022-10-11T04:20:15.506Z,67.66
2022-10-11T04:22:49.062Z,67.84
2022-10-11T04:25:22.610Z,67.82
2022-10-11T04:27:56.226Z,67.98
2022-10-11T04:30:29.761Z,68.08
2022-10-11T04:33:15.137Z,68.09
2022-10-11T04:35:50.235Z,68.37
2022-10-11T04:38:23.797Z,68.45
2022-10-11T04:40:57.304Z,68.43
2022-10-11T04:43:30.818Z,68.47
2022-10-11T04:46:05.265Z,68.48
2022-10-11T04:48:39.207Z,68.71
2022-10-11T04:51:14.339Z,68.85
2022-10-11T04:53:48.688Z,68.89
2022-10-11T04:56:22.364Z,68.97
2022-10-11T04:58:55.910Z,69.15
2022-10-11T05:01:29.484Z,69.07
2022-10-11T05:04:03.025Z,69.18
2022-10-11T05:06:37.955Z,69.44
2022-10-11T05:09:11.607Z,69.53
2022-10-11T05:11:44.922Z,68.45
2022-10-11T05:14:20.975Z,69.05
2022-10-11T05:16:54.463Z,69.31
2022-10-11T05:19:28.053Z,69.29
2022-10-11T05:22:02.988Z,69.42
2022-10-11T05:24:36.717Z,69.43
2022-10-11T05:27:10.075Z,68.56
2022-10-11T05:29:43.676Z,68.92
2022-10-11T05:32:17.443Z,69.13
2022-10-11T05:34:50.835Z,68.30
2022-10-11T05:37:25.770Z,68.77
2022-10-11T05:39:59.315Z,68.94
2022-10-11T05:42:32.864Z,68.87
2022-10-11T05:45:07.616Z,68.89
2022-10-11T05:47:41.249Z,68.81
2022-10-11T05:50:15.028Z,68.73
2022-10-11T05:52:49.741Z,67.84
2022-10-11T05:55:23.387Z,67.88
2022-10-11T05:57:57.657Z,67.84
2022-10-11T06:00:31.336Z,67.56
2022-10-11T06:03:04.647Z,66.92
2022-10-11T06:05:38.698Z,66.69
2022-10-11T06:08:14.057Z,66.19
2022-10-11T06:11:01.704Z,66.33
2022-10-11T06:13:35.986Z,65.96
2022-10-11T06:16:10.088Z,65.94
2022-10-11T06:18:46.096Z,65.78
2022-10-11T06:21:25.440Z,65.55
2022-10-11T06:24:01.954Z,65.34
2022-10-11T06:26:35.533Z,65.35
2022-10-11T06:29:10.005Z,65.45
2022-10-11T06:31:43.610Z,65.25
2022-10-11T06:34:16.944Z,64.81
2022-10-11T06:36:50.542Z,65.01
2022-10-11T06:39:25.603Z,65.33
2022-10-11T06:41:59.456Z,65.44
2022-10-11T06:44:32.818Z,64.94
2022-10-11T06:47:08.015Z,65.18
2022-10-11T06:49:41.600Z,65.68
2022-10-11T06:52:15.261Z,65.89
2022-10-11T06:54:50.339Z,65.97
2022-10-11T06:57:25.837Z,66.13
2022-10-11T06:59:59.555Z,66.30
2022-10-11T07:02:32.865Z,65.59
2022-10-11T07:05:07.187Z,66.02
2022-10-11T07:07:40.743Z,66.12
2022-10-11T07:10:15.658Z,65.04
2022-10-11T07:12:49.258Z,64.97
2022-10-11T07:15:23.092Z,64.60
2022-10-11T07:17:56.691Z,63.95
2022-10-11T07:20:33.165Z,64.01
2022-10-11T07:23:06.842Z,63.74
2022-10-11T07:25:41.487Z,63.32
2022-10-11T07:28:15.710Z,63.46
2022-10-11T07:30:50.244Z,63.60
2022-10-11T07:33:23.863Z,63.66
2022-10-11T07:35:58.333Z,63.29
2022-10-11T07:38:31.666Z,62.51
2022-10-11T07:41:08.346Z,62.12
2022-10-11T07:43:43.657Z,61.95
2022-10-11T07:46:17.423Z,61.66
2022-10-11T07:48:51.343Z,61.66
2022-10-11T07:51:25.674Z,61.48
2022-10-11T07:54:01.341Z,61.18
2022-10-11T07:56:40.314Z,60.47
2022-10-11T07:59:13.940Z,59.98
2022-10-11T08:01:47.346Z,59.81
2022-10-11T08:04:21.578Z,58.66
2022-10-11T08:06:55.116Z,57.57
2022-10-11T08:09:28.931Z,56.64
2022-10-11T08:12:04.344Z,55.33
2022-10-11T08:14:38.251Z,54.82
2022-10-11T08:17:12.189Z,54.32
2022-10-11T08:19:45.738Z,53.31
2022-10-11T08:22:19.791Z,52.92
2022-10-11T08:24:53.356Z,51.79
2022-10-11T08:27:28.022Z,52.61
2022-10-11T08:30:01.527Z,51.02
2022-10-11T08:32:34.828Z,52.13
2022-10-11T08:35:09.034Z,51.24
2022-10-11T08:37:42.560Z,51.11
2022-10-11T08:40:17.391Z,51.95
2022-10-11T08:42:59.388Z,51.40
2022-10-11T08:45:36.906Z,51.86
2022-10-11T08:48:17.534Z,52.04
2022-10-11T08:50:53.781Z,52.19
2022-10-11T08:53:37.871Z,52.56
2022-10-11T08:56:14.697Z,53.28
2022-10-11T08:58:54.013Z,53.74
2022-10-11T09:01:29.459Z,54.19
2022-10-11T09:04:04.233Z,53.91
2022-10-11T09:06:45.272Z,53.55
2022-10-11T09:09:30.590Z,53.75
2022-10-11T09:12:12.500Z,54.00
2022-10-11T09:15:09.009Z,54.09
2022-10-11T09:18:04.790Z,54.20
2022-10-11T09:20:49.651Z,54.30
2022-10-11T09:23:40.384Z,54.14
2022-10-11T09:26:24.815Z,53.66
2022-10-11T09:29:07.987Z,53.64
2022-10-11T09:31:47.638Z,52.57
2022-10-11T09:34:23.570Z,49.00
2022-10-11T09:37:04.912Z,47.04
2022-10-11T09:39:45.317Z,44.13
2022-10-11T09:42:19.038Z,43.00
2022-10-11T09:44:53.080Z,39.86
2022-10-11T09:47:30.022Z,37.21
2022-10-11T09:50:06.866Z,36.15
2022-10-11T09:52:50.031Z,35.96
2022-10-11T09:55:36.341Z,36.10
2022-10-11T09:58:27.901Z,37.19
2022-10-11T10:01:07.923Z,37.62
2022-10-11T10:03:45.204Z,38.52
2022-10-11T10:06:25.002Z,39.60
2022-10-11T10:09:21.620Z,39.44
2022-10-11T10:11:56.367Z,38.77
2022-10-11T10:14:31.644Z,37.22
2022-10-11T10:17:08.728Z,35.97
2022-10-11T10:19:50.748Z,33.02
2022-10-11T10:22:28.320Z,30.39
2022-10-11T10:25:06.110Z,27.91
2022-10-11T10:27:39.648Z,25.96
2022-10-11T10:30:17.193Z,26.10
2022-10-11T10:32:56.289Z,26.03
2022-10-11T10:35:38.874Z,25.46
2022-10-11T10:38:19.797Z,24.10
2022-10-11T10:40:58.306Z,23.18
2022-10-11T10:43:35.687Z,23.10
2022-10-11T10:46:23.710Z,23.25
2022-10-11T10:49:34.580Z,22.08
2022-10-11T10:52:13.223Z,19.93
2022-10-11T10:54:54.026Z,19.08
2022-10-11T10:57:37.220Z,17.94
2022-10-11T11:00:16.361Z,17.02
2022-10-11T11:02:56.577Z,15.82
2022-10-11T11:05:42.492Z,15.55
2022-10-11T11:08:30.004Z,15.27
2022-10-11T11:11:13.765Z,15.82
2022-10-11T11:13:54.971Z,15.63
2022-10-11T11:16:38.286Z,15.43
2022-10-11T11:19:23.512Z,14.51
2022-10-11T11:22:03.248Z,14.44
2022-10-11T11:24:46.835Z,14.21
2022-10-11T11:27:34.465Z,15.43
2022-10-11T11:30:13.150Z,15.94
2022-10-11T11:32:58.175Z,17.47
2022-10-11T11:35:38.388Z,18.31
2022-10-11T11:38:18.043Z,19.59
2022-10-11T11:40:57.622Z,20.98
2022-10-11T11:43:36.525Z,21.65
2022-10-11T11:46:16.780Z,21.63
2022-10-11T11:48:52.601Z,20.83
2022-10-11T11:51:31.887Z,19.80
2022-10-11T11:54:16.807Z,18.43
2022-10-11T11:56:59.599Z,17.25
2022-10-11T11:59:37.006Z,18.13
2022-10-11T12:02:34.743Z,16.52
2022-10-11T12:05:08.950Z,15.54
2022-10-11T12:07:53.468Z,15.73
2022-10-11T12:10:37.089Z,16.42
2022-10-11T12:13:26.301Z,17.56
2022-10-11T12:16:11.141Z,17.80
2022-10-11T12:18:52.163Z,18.87
2022-10-11T12:21:32.850Z,18.63
2022-10-11T12:24:13.494Z,17.96
2022-10-11T12:26:48.998Z,17.54
2022-10-11T12:29:46.401Z,17.29
2022-10-11T12:32:52.263Z,16.00
2022-10-11T12:36:04.047Z,15.82
2022-10-11T12:38:42.032Z,14.61
2022-10-11T12:41:50.910Z,14.46
2022-10-11T12:44:26.521Z,14.12
2022-10-11T12:47:27.787Z,14.13
2022-10-11T12:50:11.701Z,14.47
2022-10-11T12:52:59.205Z,14.66
2022-10-11T12:55:46.895Z,14.48
2022-10-11T12:58:30.027Z,14.70
2022-10-11T13:01:23.406Z,14.12
2022-10-11T13:04:05.501Z,14.23
2022-10-11T13:06:46.726Z,14.05
2022-10-11T13:09:28.897Z,13.71
2022-10-11T13:12:06.702Z,14.10
2022-10-11T13:14:46.652Z,14.91
2022-10-11T13:17:24.926Z,15.59
2022-10-11T13:20:03.626Z,16.70
2022-10-11T13:22:40.850Z,17.11
2022-10-11T13:25:18.782Z,17.96
2022-10-11T13:27:55.327Z,19.02
2022-10-11T13:30:31.708Z,19.00
2022-10-11T13:33:09.971Z,19.85
2022-10-11T13:35:45.218Z,20.75
2022-10-11T13:38:24.134Z,21.11
2022-10-11T13:41:00.196Z,22.10
2022-10-11T13:43:34.278Z,23.22
2022-10-11T13:46:09.364Z,23.54
2022-10-11T13:48:43.353Z,24.46
2022-10-11T13:51:29.729Z,25.00
2022-10-11T13:54:05.436Z,25.87
2022-10-11T13:56:45.573Z,26.27
2022-10-11T13:59:22.070Z,27.34
2022-10-11T14:02:04.597Z,28.12
2022-10-11T14:04:42.048Z,28.29
2022-10-11T14:07:26.369Z,29.08
2022-10-11T14:10:00.497Z,29.69
2022-10-11T14:12:38.304Z,30.38
2022-10-11T14:15:27.152Z,30.94
2022-10-11T14:18:01.840Z,31.39
2022-10-11T14:20:38.949Z,31.53
2022-10-11T14:23:14.384Z,31.82
2022-10-11T14:25:48.402Z,31.77
2022-10-11T14:28:22.220Z,32.07
2022-10-11T14:30:55.962Z,32.26
2022-10-11T14:33:31.052Z,33.01
2022-10-11T14:36:05.169Z,33.72
2022-10-11T14:38:40.678Z,34.60
2022-10-11T14:41:14.256Z,35.12
2022-10-11T14:43:47.790Z,35.64
2022-10-11T14:46:22.687Z,34.66
2022-10-11T14:48:56.982Z,36.16
2022-10-11T14:51:36.607Z,36.65
2022-10-11T14:54:12.251Z,36.90
2022-10-11T14:56:48.465Z,37.73
2022-10-11T14:59:24.213Z,38.07
2022-10-11T15:01:57.730Z,38.60
2022-10-11T15:04:30.964Z,37.42
2022-10-11T15:07:05.960Z,38.60
2022-10-11T15:09:40.962Z,39.34
2022-10-11T15:12:14.570Z,39.72
2022-10-11T15:14:47.785Z,38.26
2022-10-11T15:17:21.320Z,39.67
2022-10-11T15:19:54.502Z,38.72
2022-10-11T15:22:28.166Z,39.93
2022-10-11T15:25:02.843Z,39.02
2022-10-11T15:27:36.468Z,40.37
2022-10-11T15:30:14.700Z,39.27
2022-10-11T15:32:50.135Z,40.71
2022-10-11T15:35:25.596Z,41.42
2022-10-11T15:38:01.392Z,41.75
2022-10-11T15:40:37.914Z,42.13
2022-10-11T15:43:11.712Z,42.13
2022-10-11T15:45:45.684Z,42.33
2022-10-11T15:48:24.091Z,42.87
2022-10-11T15:50:58.833Z,42.80
2022-10-11T15:53:32.759Z,42.94
2022-10-11T15:56:10.615Z,42.97
2022-10-11T15:58:44.903Z,43.19
2022-10-11T16:01:20.880Z,43.66
2022-10-11T16:03:54.608Z,43.87
2022-10-11T16:06:28.652Z,42.77
2022-10-11T16:09:02.506Z,43.80
2022-10-11T16:11:37.692Z,44.31
2022-10-11T16:14:11.407Z,44.41
2022-10-11T16:16:44.735Z,43.47
2022-10-11T16:19:18.414Z,44.39
2022-10-11T16:21:51.611Z,43.41
2022-10-11T16:24:25.428Z,44.31
2022-10-11T16:27:02.733Z,44.88
2022-10-11T16:29:37.046Z,45.22
2022-10-11T16:32:10.869Z,45.28
2022-10-11T16:34:44.789Z,45.41
2022-10-11T16:37:18.730Z,45.70
2022-10-11T16:39:52.404Z,45.95
2022-10-11T16:42:27.230Z,44.87
2022-10-11T16:45:01.183Z,46.05
2022-10-11T16:47:34.410Z,45.06
2022-10-11T16:50:09.214Z,45.94
2022-10-11T16:52:43.035Z,46.41
2022-10-11T16:55:16.637Z,46.92
2022-10-11T16:57:51.936Z,47.13
2022-10-11T17:00:26.192Z,47.43
2022-10-11T17:03:03.342Z,47.69
2022-10-11T17:05:37.984Z,48.00
2022-10-11T17:08:14.487Z,48.02
2022-10-11T17:10:53.583Z,46.99
2022-10-11T17:13:36.965Z,47.74
2022-10-11T17:16:14.120Z,47.98
2022-10-11T17:18:51.281Z,48.57
2022-10-11T17:21:25.427Z,48.54
2022-10-11T17:23:59.295Z,48.79
2022-10-11T17:26:34.173Z,48.95
2022-10-11T17:29:14.292Z,49.03
2022-10-11T17:31:49.662Z,49.13
2022-10-11T17:34:25.689Z,49.35
2022-10-11T17:36:59.453Z,49.23
2022-10-11T17:39:32.791Z,48.41
2022-10-11T17:42:07.849Z,49.03
2022-10-11T17:44:48.052Z,49.31
2022-10-11T17:47:21.893Z,49.63
2022-10-11T17:49:55.600Z,49.78
2022-10-11T17:52:29.839Z,49.94
2022-10-11T17:55:03.777Z,50.00
2022-10-11T17:57:37.448Z,50.11
2022-10-11T18:00:13.022Z,49.02
2022-10-11T18:02:47.016Z,49.73
2022-10-11T18:05:20.643Z,50.21
2022-10-11T18:07:54.346Z,50.44
2022-10-11T18:10:30.909Z,49.29
2022-10-11T18:13:06.824Z,50.24
2022-10-11T18:15:44.100Z,50.56
2022-10-11T18:18:18.414Z,50.94
2022-10-11T18:20:52.470Z,51.05
2022-10-11T18:23:26.359Z,51.27
2022-10-11T18:26:01.654Z,50.12
2022-10-11T18:28:36.546Z,51.18
2022-10-11T18:31:14.701Z,51.37
2022-10-11T18:33:51.162Z,51.61
2022-10-11T18:36:27.737Z,51.99
2022-10-11T18:39:04.539Z,52.09
2022-10-11T18:41:42.122Z,52.18
2022-10-11T18:44:16.878Z,52.24
2022-10-11T18:46:53.527Z,52.45
2022-10-11T18:49:27.096Z,52.63
2022-10-11T18:52:00.889Z,52.71
2022-10-11T18:54:34.277Z,51.68
2022-10-11T18:57:08.099Z,52.56
2022-10-11T18:59:41.522Z,51.56
2022-10-11T19:02:21.908Z,52.60
2022-10-11T19:04:55.558Z,52.91
2022-10-11T19:07:29.519Z,53.14
2022-10-11T19:10:04.280Z,53.38
2022-10-11T19:12:37.897Z,53.63
2022-10-11T19:15:16.726Z,53.74
2022-10-11T19:17:51.737Z,53.93
2022-10-11T19:20:25.408Z,54.22
2022-10-11T19:22:58.950Z,54.16
2022-10-11T19:25:36.158Z,54.49
2022-10-11T19:28:13.616Z,54.62
2022-10-11T19:30:53.222Z,54.71
2022-10-11T19:33:38.042Z,55.01
2022-10-11T19:36:15.049Z,55.19
2022-10-11T19:38:50.055Z,55.21
2022-10-11T19:41:26.471Z,55.48
2022-10-11T19:44:02.690Z,55.59
2022-10-11T19:46:52.941Z,55.74
2022-10-11T19:49:31.307Z,55.90
2022-10-11T19:52:04.959Z,56.04
2022-10-11T19:54:46.134Z,56.16
2022-10-11T19:57:19.399Z,55.22
2022-10-11T19:59:52.909Z,55.83
2022-10-11T20:02:26.471Z,55.86
2022-10-11T20:05:01.347Z,56.27
2022-10-11T20:07:34.915Z,56.34
2022-10-11T20:10:11.305Z,56.48
2022-10-11T20:12:46.028Z,56.73
2022-10-11T20:15:19.682Z,57.00
2022-10-11T20:17:53.164Z,57.07
2022-10-11T20:20:28.185Z,57.30
2022-10-11T20:23:01.785Z,57.53
2022-10-11T20:25:35.286Z,57.60
2022-10-11T20:28:08.952Z,57.46
2022-10-11T20:30:46.151Z,57.72
2022-10-11T20:33:19.886Z,57.99
2022-10-11T20:36:04.282Z,57.99
2022-10-11T20:38:40.559Z,58.11
2022-10-11T20:41:18.706Z,58.17
2022-10-11T20:43:54.025Z,58.44
2022-10-11T20:46:32.157Z,58.51
2022-10-11T20:49:07.576Z,58.55
2022-10-11T20:51:46.629Z,58.52
2022-10-11T20:54:21.346Z,58.64
2022-10-11T20:56:57.718Z,58.87
2022-10-11T20:59:39.247Z,59.08
2022-10-11T21:02:19.095Z,59.02
2022-10-11T21:04:52.971Z,59.00
2022-10-11T21:07:29.083Z,58.22
2022-10-11T21:10:02.581Z,58.87
2022-10-11T21:12:38.454Z,58.98
2022-10-11T21:15:15.041Z,59.13
2022-10-11T21:17:51.885Z,59.22
2022-10-11T21:20:28.548Z,59.25
2022-10-11T21:23:04.596Z,59.33
2022-10-11T21:25:39.386Z,59.50
2022-10-11T21:28:13.157Z,59.40
2022-10-11T21:30:53.647Z,58.58
2022-10-11T21:33:27.187Z,59.13
2022-10-11T21:36:00.837Z,59.23
2022-10-11T21:38:37.987Z,59.42
2022-10-11T21:41:16.441Z,59.91
2022-10-11T21:43:51.062Z,59.92
2022-10-11T21:46:47.672Z,60.00
2022-10-11T21:49:21.304Z,60.15
2022-10-11T21:51:55.545Z,60.22
2022-10-11T21:54:31.162Z,60.33
2022-10-11T21:57:07.942Z,60.44
2022-10-11T21:59:43.737Z,60.48
2022-10-11T22:02:17.738Z,60.45
2022-10-11T22:04:50.927Z,59.52
2022-10-11T22:07:27.553Z,60.02
2022-10-11T22:10:05.751Z,60.17
2022-10-11T22:12:39.883Z,60.45
2022-10-11T22:15:13.836Z,60.63
2022-10-11T22:17:50.186Z,60.75
2022-10-11T22:20:24.281Z,60.77
2022-10-11T22:22:58.261Z,60.93
2022-10-11T22:25:37.713Z,60.08
2022-10-11T22:28:14.204Z,60.55
2022-10-11T22:30:48.662Z,60.69
2022-10-11T22:33:22.196Z,60.85
2022-10-11T22:35:57.381Z,61.10
2022-10-11T22:38:31.367Z,61.14
2022-10-11T22:41:11.443Z,61.34
2022-10-11T22:43:46.897Z,61.32
2022-10-11T22:46:25.501Z,61.41
2022-10-11T22:49:00.869Z,61.38
2022-10-11T22:51:34.503Z,61.56
2022-10-11T22:54:08.108Z,61.63
2022-10-11T22:56:43.166Z,61.65
2022-10-11T22:59:16.691Z,61.77
2022-10-11T23:01:50.229Z,61.75
2022-10-11T23:04:23.814Z,61.82
2022-10-11T23:07:01.196Z,61.72
2022-10-11T23:09:37.431Z,61.88
2022-10-11T23:12:12.393Z,61.91
2022-10-11T23:14:45.979Z,62.31
2022-10-11T23:17:19.609Z,62.24
2022-10-11T23:19:53.582Z,62.24
2022-10-11T23:22:27.183Z,62.36
2022-10-11T23:25:00.746Z,62.43
2022-10-11T23:27:36.024Z,62.36
2022-10-11T23:30:11.431Z,62.65
2022-10-11T23:32:45.040Z,62.54
2022-10-11T23:35:20.107Z,62.66
2022-10-11T23:37:54.964Z,62.59
2022-10-11T23:40:28.471Z,62.58
2022-10-11T23:43:03.428Z,62.73
2022-10-11T23:45:36.876Z,62.65
2022-10-11T23:48:10.367Z,62.76
2022-10-11T23:50:44.074Z,62.85
2022-10-11T23:53:17.624Z,62.83
2022-10-11T23:55:51.129Z,63.01
2022-10-11T23:58:26.091Z,62.95
